This is the latest recevied weather packets stored in our database for station/object M0HPP-13. If no packets are shown the sender has not sent any weather packets the latest 10 day(s).
| Time | Temp. | Humidity | Pressure | Rain* | Wind** | Luminosity | Snow |
|---|---|---|---|---|---|---|---|
| 1787752686 | 14.44° C | 96% | 1018.3 hPa | 0 mm | - | 244 W/m² | - |
| 1787752086 | 15° C | 94% | 1018.5 hPa | 0 mm | - | 343 W/m² | - |
| 1787751486 | 15° C | 94% | 1018.6 hPa | 0 mm | - | 376 W/m² | - |
| 1787750886 | 15° C | 95% | 1018.6 hPa | 0 mm | - | 368 W/m² | - |
| 1787750286 | 15° C | 94% | 1018.7 hPa | 0 mm | - | 341 W/m² | - |
| 1787749686 | 15° C | 94% | 1018.8 hPa | 0 mm | - | 366 W/m² | - |
| 1787749086 | 15° C | 94% | 1018.7 hPa | 0 mm | - | 300 W/m² | - |
| 1787748486 | 15° C | 94% | 1018.8 hPa | 0 mm | - | 251 W/m² | - |
| 1787747886 | 15° C | 93% | 1018.8 hPa | 0 mm | - | 342 W/m² | - |
| 1787747286 | 15° C | 92% | 1018.9 hPa | 0 mm | - | 385 W/m² | - |
| 1787746686 | 15° C | 91% | 1019 hPa | 0 mm | - | 433 W/m² | - |
| 1787746086 | 15° C | 92% | 1019 hPa | 0 mm | - | 382 W/m² | - |
| 1787744286 | 14.44° C | 95% | 1019.1 hPa | 0 mm | - | 253 W/m² | - |
| 1787743686 | 14.44° C | 94% | 1019.2 hPa | 0 mm | - | 314 W/m² | - |
| 1787743086 | 14.44° C | 94% | 1019.2 hPa | 0 mm | - | 328 W/m² | - |
| 1787742486 | 14.44° C | 93% | 1019.3 hPa | 0 mm | - | 342 W/m² | - |
| 1787741886 | 14.44° C | 91% | 1019.2 hPa | 0 mm | - | 226 W/m² | - |
| 1787741286 | 15° C | 87% | 1019.4 hPa | 0 mm | - | 335 W/m² | - |
| 1787740686 | 15° C | 87% | 1019.4 hPa | 0 mm | - | 296 W/m² | - |
| 1787740086 | 15° C | 87% | 1019.4 hPa | 0 mm | - | 365 W/m² | - |
| 1787739486 | 15° C | 87% | 1019.5 hPa | 0 mm | - | 347 W/m² | - |
| 1787738886 | 15° C | 87% | 1019.5 hPa | 0 mm | - | 352 W/m² | - |
| 1787738286 | 15.56° C | 86% | 1019.5 hPa | 0 mm | - | 444 W/m² | - |
| 1787737686 | 15.56° C | 89% | 1019.5 hPa | 0 mm | - | 439 W/m² | - |
| 1787737086 | 14.44° C | 91% | 1019.6 hPa | 0 mm | - | 424 W/m² | - |
* Rain latest hour (hover to see other rain measurements)
** Current wind speed in m/s (hover to see current wind gust speed)